createdAt,value
2018-07-09T00:00:02.092Z,25.60
2018-07-09T00:02:29.015Z,25.60
2018-07-09T00:04:55.928Z,25.60
2018-07-09T00:07:22.834Z,25.60
2018-07-09T00:09:49.796Z,25.60
2018-07-09T00:12:16.687Z,25.50
2018-07-09T00:14:43.623Z,25.60
2018-07-09T00:17:10.523Z,25.60
2018-07-09T00:19:37.456Z,25.60
2018-07-09T00:22:04.358Z,25.50
2018-07-09T00:24:31.276Z,25.50
2018-07-09T00:26:58.184Z,25.50
2018-07-09T00:29:25.140Z,25.50
2018-07-09T00:31:52.045Z,25.50
2018-07-09T00:34:18.976Z,25.50
2018-07-09T00:36:45.866Z,25.50
2018-07-09T00:39:12.783Z,25.50
2018-07-09T00:41:39.695Z,25.50
2018-07-09T00:44:06.656Z,25.50
2018-07-09T00:46:33.556Z,25.40
2018-07-09T00:49:00.657Z,25.50
2018-07-09T00:51:27.624Z,25.40
2018-07-09T00:53:54.575Z,25.50
2018-07-09T00:56:21.491Z,25.40
2018-07-09T00:58:48.448Z,25.40
2018-07-09T01:01:15.410Z,25.40
2018-07-09T01:03:42.292Z,25.40
2018-07-09T01:06:09.212Z,25.40
2018-07-09T01:08:36.110Z,25.40
2018-07-09T01:11:08.856Z,25.40
2018-07-09T01:13:40.538Z,25.40
2018-07-09T01:16:08.219Z,25.40
2018-07-09T01:18:35.248Z,25.40
2018-07-09T01:21:02.414Z,25.40
2018-07-09T01:23:29.360Z,25.40
2018-07-09T01:25:56.331Z,25.40
2018-07-09T01:28:23.225Z,25.40
2018-07-09T01:30:50.152Z,25.40
2018-07-09T01:33:17.035Z,25.40
2018-07-09T01:35:43.984Z,25.40
2018-07-09T01:38:10.937Z,25.40
2018-07-09T01:40:37.861Z,25.40
2018-07-09T01:43:04.785Z,25.40
2018-07-09T01:45:31.708Z,25.40
2018-07-09T01:47:58.600Z,25.40
2018-07-09T01:50:25.600Z,25.40
2018-07-09T01:52:52.670Z,25.40
2018-07-09T01:55:19.604Z,25.40
2018-07-09T01:57:46.504Z,25.40
2018-07-09T02:00:13.443Z,25.40
2018-07-09T02:02:40.320Z,25.40
2018-07-09T02:05:07.270Z,25.40
2018-07-09T02:07:34.171Z,25.40
2018-07-09T02:10:01.072Z,25.40
2018-07-09T02:12:27.971Z,25.40
2018-07-09T02:14:54.864Z,25.40
2018-07-09T02:17:21.841Z,25.40
2018-07-09T02:19:48.800Z,25.30
2018-07-09T02:22:15.722Z,25.30
2018-07-09T02:24:42.637Z,25.30
2018-07-09T02:27:09.532Z,25.30
2018-07-09T02:29:36.435Z,25.30
2018-07-09T02:32:03.352Z,25.30
2018-07-09T02:34:31.196Z,25.30
2018-07-09T02:36:58.118Z,25.30
2018-07-09T02:39:25.114Z,25.30
2018-07-09T02:41:52.024Z,25.30
2018-07-09T02:44:18.931Z,25.30
2018-07-09T02:46:45.846Z,25.30
2018-07-09T02:49:12.812Z,25.20
2018-07-09T02:54:06.630Z,25.30
2018-07-09T02:56:33.573Z,25.20
2018-07-09T02:59:00.450Z,25.20
2018-07-09T03:01:27.404Z,25.20
2018-07-09T03:03:54.332Z,25.20
2018-07-09T03:06:21.248Z,25.20
2018-07-09T03:08:48.197Z,25.20
2018-07-09T03:11:15.136Z,25.20
2018-07-09T03:13:42.093Z,25.20
2018-07-09T03:16:09.007Z,25.20
2018-07-09T03:18:35.907Z,25.20
2018-07-09T03:21:02.860Z,25.20
2018-07-09T03:23:29.776Z,25.20
2018-07-09T03:25:56.876Z,25.20
2018-07-09T03:28:23.797Z,25.20
2018-07-09T03:30:50.713Z,25.20
2018-07-09T03:33:17.623Z,25.20
2018-07-09T03:35:44.654Z,25.20
2018-07-09T03:38:11.568Z,25.20
2018-07-09T03:40:38.472Z,25.20
2018-07-09T03:43:05.400Z,25.20
2018-07-09T03:45:32.324Z,25.10
2018-07-09T03:47:59.231Z,25.10
2018-07-09T03:50:26.379Z,25.10
2018-07-09T03:52:53.254Z,25.10
2018-07-09T03:55:20.193Z,25.10
2018-07-09T03:57:47.108Z,25.10
2018-07-09T04:00:14.010Z,25.10
2018-07-09T04:02:40.912Z,25.10
2018-07-09T04:05:07.832Z,25.10
2018-07-09T04:07:34.759Z,25.10
2018-07-09T04:10:01.692Z,25.10
2018-07-09T04:12:28.624Z,25.10
2018-07-09T04:14:55.595Z,25.10
2018-07-09T04:17:22.503Z,25.10
2018-07-09T04:22:16.256Z,25.10
2018-07-09T04:24:43.184Z,25.10
2018-07-09T04:27:10.072Z,25.10
2018-07-09T04:29:36.995Z,25.20
2018-07-09T04:32:03.908Z,25.20
2018-07-09T04:34:30.843Z,25.10
2018-07-09T04:36:57.734Z,25.10
2018-07-09T04:39:24.713Z,25.10
2018-07-09T04:41:51.904Z,25.10
2018-07-09T04:44:18.856Z,25.20
2018-07-09T04:46:45.755Z,25.10
2018-07-09T04:49:12.669Z,25.20
2018-07-09T04:51:39.776Z,25.20
2018-07-09T04:54:06.836Z,25.30
2018-07-09T04:56:33.852Z,25.30
2018-07-09T04:59:00.798Z,25.30
2018-07-09T05:01:27.707Z,25.40
2018-07-09T05:03:54.648Z,25.40
2018-07-09T05:08:48.423Z,25.40
2018-07-09T05:11:15.356Z,25.50
2018-07-09T05:13:42.258Z,25.60
2018-07-09T05:16:09.204Z,25.60
2018-07-09T05:18:36.079Z,25.60
2018-07-09T05:21:03.028Z,25.60
2018-07-09T05:23:29.917Z,25.60
2018-07-09T05:25:56.848Z,25.60
2018-07-09T05:30:50.579Z,25.70
2018-07-09T05:33:17.563Z,25.70
2018-07-09T05:35:44.581Z,25.70
2018-07-09T05:38:11.500Z,25.80
2018-07-09T05:40:39.300Z,25.80
2018-07-09T05:43:06.385Z,25.80
2018-07-09T05:45:33.323Z,25.80
2018-07-09T05:48:00.268Z,25.80
2018-07-09T05:50:27.166Z,25.80
2018-07-09T05:52:54.121Z,25.80
2018-07-09T05:55:21.084Z,25.90
2018-07-09T05:57:47.977Z,25.90
2018-07-09T06:00:14.884Z,25.90
2018-07-09T06:02:41.785Z,26.00
2018-07-09T06:05:09.755Z,26.00
2018-07-09T06:07:36.751Z,26.10
2018-07-09T06:10:03.756Z,26.10
2018-07-09T06:12:30.662Z,26.20
2018-07-09T06:14:57.596Z,26.20
2018-07-09T06:17:24.554Z,26.30
2018-07-09T06:19:51.456Z,26.30
2018-07-09T06:22:18.377Z,26.40
2018-07-09T06:24:45.299Z,26.40
2018-07-09T06:27:12.213Z,26.50
2018-07-09T06:29:39.128Z,26.50
2018-07-09T06:32:06.101Z,26.50
2018-07-09T06:34:33.139Z,26.60
2018-07-09T06:37:00.059Z,26.60
2018-07-09T06:39:26.996Z,26.60
2018-07-09T06:41:53.919Z,26.60
2018-07-09T06:44:20.831Z,26.70
2018-07-09T06:46:47.744Z,26.70
2018-07-09T06:49:14.899Z,26.70
2018-07-09T06:51:41.811Z,26.70
2018-07-09T06:54:08.766Z,26.70
2018-07-09T06:56:35.690Z,26.80
2018-07-09T06:59:02.652Z,26.80
2018-07-09T07:01:29.551Z,26.70
2018-07-09T07:03:56.500Z,26.70
2018-07-09T07:06:23.444Z,26.70
2018-07-09T07:08:50.474Z,26.70
2018-07-09T07:11:17.381Z,26.70
2018-07-09T07:13:44.543Z,26.70
2018-07-09T07:16:11.428Z,26.70
2018-07-09T07:18:38.387Z,26.70
2018-07-09T07:21:06.286Z,26.70
2018-07-09T07:23:33.167Z,26.70
2018-07-09T07:26:00.053Z,26.70
2018-07-09T07:28:26.989Z,26.70
2018-07-09T07:30:54.021Z,26.70
2018-07-09T07:33:21.244Z,26.60
2018-07-09T07:35:48.136Z,26.60
2018-07-09T07:38:15.060Z,26.60
2018-07-09T07:40:41.967Z,26.60
2018-07-09T07:43:08.882Z,26.50
2018-07-09T07:45:35.776Z,26.50
2018-07-09T07:48:02.726Z,26.50
2018-07-09T07:50:29.709Z,26.50
2018-07-09T07:52:56.629Z,26.50
2018-07-09T07:55:23.552Z,26.50
2018-07-09T07:57:50.508Z,26.50
2018-07-09T08:00:17.399Z,26.50
2018-07-09T08:02:44.655Z,26.50
2018-07-09T08:05:11.737Z,26.50
2018-07-09T08:07:38.673Z,26.60
2018-07-09T08:10:06.239Z,26.60
2018-07-09T08:13:13.744Z,26.60
2018-07-09T08:15:00.357Z,26.60
2018-07-09T08:17:27.261Z,26.60
2018-07-09T08:19:54.220Z,26.60
2018-07-09T08:22:21.140Z,26.50
2018-07-09T08:24:48.111Z,26.50
2018-07-09T08:27:14.972Z,26.50
2018-07-09T08:29:41.912Z,26.50
2018-07-09T08:32:08.911Z,26.40
2018-07-09T08:34:35.824Z,26.40
2018-07-09T08:37:02.760Z,26.40
2018-07-09T08:39:30.006Z,26.40
2018-07-09T08:41:56.955Z,26.30
2018-07-09T08:44:23.914Z,26.30
2018-07-09T08:46:50.831Z,26.30
2018-07-09T08:49:17.739Z,26.30
2018-07-09T08:51:44.788Z,26.40
2018-07-09T08:54:12.103Z,26.30
2018-07-09T08:56:39.040Z,26.30
2018-07-09T08:59:05.963Z,26.30
2018-07-09T09:01:32.926Z,26.30
2018-07-09T09:03:59.855Z,26.40
2018-07-09T09:06:26.806Z,26.30
2018-07-09T09:08:53.700Z,26.30
2018-07-09T09:11:20.625Z,26.40
2018-07-09T09:13:47.540Z,26.40
2018-07-09T09:16:14.520Z,26.40
2018-07-09T09:18:41.445Z,26.40
2018-07-09T09:21:08.644Z,26.40
2018-07-09T09:23:35.688Z,26.40
2018-07-09T09:26:02.636Z,26.40
2018-07-09T09:28:29.544Z,26.40
2018-07-09T09:30:56.565Z,26.40
2018-07-09T09:33:23.656Z,26.40
2018-07-09T09:35:51.267Z,26.40
2018-07-09T09:38:18.167Z,26.40
2018-07-09T09:43:12.032Z,26.40
2018-07-09T09:45:38.945Z,26.40
2018-07-09T09:48:05.892Z,26.40
2018-07-09T09:50:32.811Z,26.40
2018-07-09T09:52:59.702Z,26.40
2018-07-09T09:55:26.639Z,26.40
2018-07-09T09:57:53.522Z,26.40
2018-07-09T10:00:25.021Z,26.40
2018-07-09T10:02:51.915Z,26.40
2018-07-09T10:05:18.856Z,26.30
2018-07-09T10:07:45.755Z,26.40
2018-07-09T10:10:12.708Z,26.30
2018-07-09T10:12:39.583Z,26.30
2018-07-09T10:15:06.513Z,26.30
2018-07-09T10:17:33.469Z,26.30
2018-07-09T10:20:00.383Z,26.40
2018-07-09T10:22:27.293Z,26.40
2018-07-09T10:24:54.208Z,26.30
2018-07-09T10:27:21.121Z,26.40
2018-07-09T10:29:48.084Z,26.40
2018-07-09T10:32:14.999Z,26.30
2018-07-09T10:34:41.904Z,26.40
2018-07-09T10:37:08.815Z,26.40
2018-07-09T10:39:35.896Z,26.40
2018-07-09T10:42:02.918Z,26.40
2018-07-09T10:44:29.833Z,26.40
2018-07-09T10:46:56.748Z,26.30
2018-07-09T10:49:23.692Z,26.30
2018-07-09T10:51:50.624Z,26.40
2018-07-09T10:54:17.591Z,26.30
2018-07-09T10:56:44.504Z,26.30
2018-07-09T11:01:38.292Z,26.30
2018-07-09T11:04:05.260Z,26.30
2018-07-09T11:06:32.228Z,26.40
2018-07-09T11:08:59.214Z,26.40
2018-07-09T11:11:26.261Z,26.30
2018-07-09T11:13:53.799Z,26.30
2018-07-09T11:16:20.787Z,26.30
2018-07-09T11:18:47.641Z,26.30
2018-07-09T11:21:14.573Z,26.30
2018-07-09T11:23:41.452Z,26.30
2018-07-09T11:26:08.389Z,26.30
2018-07-09T11:28:35.687Z,26.30
2018-07-09T11:31:02.669Z,26.30
2018-07-09T11:33:29.603Z,26.30
2018-07-09T11:35:56.570Z,26.30
2018-07-09T11:38:23.572Z,26.30
2018-07-09T11:40:50.500Z,26.20
2018-07-09T11:43:17.444Z,26.20
2018-07-09T11:45:44.412Z,26.20
2018-07-09T11:48:11.315Z,26.20
2018-07-09T11:50:38.240Z,26.20
2018-07-09T11:53:05.160Z,26.20
2018-07-09T11:55:32.076Z,26.20
2018-07-09T11:57:59.012Z,26.10
2018-07-09T12:00:26.006Z,26.10
2018-07-09T12:02:52.951Z,26.10
2018-07-09T12:05:19.844Z,26.10
2018-07-09T12:07:46.780Z,26.00
2018-07-09T12:10:13.678Z,26.00
2018-07-09T12:12:40.908Z,26.00
2018-07-09T12:15:07.819Z,26.00
2018-07-09T12:17:34.813Z,26.00
2018-07-09T12:20:01.706Z,26.00
2018-07-09T12:22:28.640Z,26.00
2018-07-09T12:24:55.515Z,26.00
2018-07-09T12:27:22.435Z,25.90
2018-07-09T12:29:49.362Z,25.90
2018-07-09T12:32:16.272Z,25.90
2018-07-09T12:34:43.311Z,26.00
2018-07-09T12:37:10.344Z,25.90
2018-07-09T12:39:37.258Z,26.00
2018-07-09T12:42:04.224Z,26.00
2018-07-09T12:44:31.124Z,25.90
2018-07-09T12:46:58.040Z,26.00
2018-07-09T12:49:25.404Z,26.00
2018-07-09T12:51:52.309Z,26.00
2018-07-09T12:54:19.460Z,26.00
2018-07-09T12:56:46.684Z,26.00
2018-07-09T12:59:13.743Z,26.10
2018-07-09T13:01:41.018Z,26.10
2018-07-09T13:04:07.956Z,26.10
2018-07-09T13:06:34.867Z,26.20
2018-07-09T13:09:03.119Z,26.20
2018-07-09T13:11:30.055Z,26.10
2018-07-09T13:13:57.014Z,26.10
2018-07-09T13:16:24.512Z,26.10
2018-07-09T13:18:51.467Z,26.10
2018-07-09T13:21:18.431Z,26.10
2018-07-09T13:23:45.363Z,26.10
2018-07-09T13:26:12.300Z,26.10
2018-07-09T13:28:39.455Z,26.10
2018-07-09T13:33:33.268Z,26.10
2018-07-09T13:36:00.327Z,26.00
2018-07-09T13:38:27.366Z,26.00
2018-07-09T13:40:54.261Z,26.00
2018-07-09T13:43:21.181Z,26.00
2018-07-09T13:45:48.148Z,26.00
2018-07-09T13:48:15.108Z,26.00
2018-07-09T13:50:42.091Z,26.10
2018-07-09T13:53:08.999Z,26.10
2018-07-09T13:55:35.999Z,26.10
2018-07-09T13:58:02.959Z,26.10
2018-07-09T14:00:29.900Z,26.10
2018-07-09T14:02:56.816Z,26.10
2018-07-09T14:05:23.801Z,26.10
2018-07-09T14:07:50.756Z,26.20
2018-07-09T14:10:17.749Z,26.20
2018-07-09T14:12:44.624Z,26.10
2018-07-09T14:15:11.566Z,26.10
2018-07-09T14:17:38.447Z,26.20
2018-07-09T14:20:13.126Z,26.20
2018-07-09T14:22:40.424Z,26.20
2018-07-09T14:25:07.608Z,26.20
2018-07-09T14:27:34.592Z,26.10
2018-07-09T14:30:01.563Z,26.10
2018-07-09T14:32:28.712Z,26.10
2018-07-09T14:34:55.824Z,26.00
2018-07-09T14:37:22.760Z,26.00
2018-07-09T14:39:49.958Z,26.00
2018-07-09T14:42:16.874Z,26.00
2018-07-09T14:44:43.844Z,26.00
2018-07-09T14:47:10.765Z,26.00
2018-07-09T14:49:37.676Z,26.00
2018-07-09T14:52:04.595Z,26.00
2018-07-09T14:54:31.601Z,26.00
2018-07-09T14:56:58.539Z,26.00
2018-07-09T14:59:25.454Z,26.00
2018-07-09T15:01:52.408Z,26.00
2018-07-09T15:04:19.420Z,26.00
2018-07-09T15:06:46.355Z,26.00
2018-07-09T15:14:06.956Z,25.90
2018-07-09T15:16:33.892Z,25.90
2018-07-09T15:19:00.777Z,25.90
2018-07-09T15:21:27.720Z,25.90
2018-07-09T15:28:48.470Z,25.90
2018-07-09T15:31:15.860Z,25.90
2018-07-09T15:33:42.776Z,25.80
2018-07-09T15:36:10.120Z,25.80
2018-07-09T15:38:36.971Z,25.80
2018-07-09T15:41:04.319Z,25.80
2018-07-09T15:44:03.793Z,25.80
2018-07-09T15:46:30.920Z,25.80
2018-07-09T15:48:57.820Z,25.80
2018-07-09T15:51:25.186Z,25.80
2018-07-09T15:53:52.494Z,25.80
2018-07-09T15:56:19.600Z,25.80
2018-07-09T15:58:46.541Z,25.80
2018-07-09T16:01:13.423Z,25.90
2018-07-09T16:03:42.404Z,25.80
2018-07-09T16:08:37.298Z,25.80
2018-07-09T16:11:04.214Z,25.80
2018-07-09T16:13:31.135Z,25.80
2018-07-09T16:15:58.077Z,25.80
2018-07-09T16:18:26.199Z,25.80
2018-07-09T16:20:54.302Z,25.80
2018-07-09T16:25:48.265Z,25.80
2018-07-09T16:28:17.583Z,25.80
2018-07-09T16:30:44.473Z,25.80
2018-07-09T16:33:11.960Z,25.80
2018-07-09T16:35:38.890Z,25.70
2018-07-09T16:38:05.787Z,25.80
2018-07-09T16:40:32.784Z,25.70
2018-07-09T16:43:01.303Z,25.70
2018-07-09T16:45:28.263Z,25.80
2018-07-09T16:47:55.480Z,25.70
2018-07-09T16:50:22.413Z,25.80
2018-07-09T16:52:49.357Z,25.70
2018-07-09T16:55:16.580Z,25.70
2018-07-09T16:57:43.488Z,25.70
2018-07-09T17:00:10.411Z,25.70
2018-07-09T17:02:37.316Z,25.70
2018-07-09T17:05:04.203Z,25.70
2018-07-09T17:07:31.305Z,25.60
2018-07-09T17:10:00.212Z,25.60
2018-07-09T17:12:27.372Z,25.50
2018-07-09T17:14:55.415Z,25.50
2018-07-09T17:17:22.391Z,25.40
2018-07-09T17:19:49.340Z,25.40
2018-07-09T17:22:16.242Z,25.40
2018-07-09T17:24:43.140Z,25.40
2018-07-09T17:27:10.068Z,25.40
2018-07-09T17:29:37.272Z,25.40
2018-07-09T17:32:05.678Z,25.40
2018-07-09T17:34:32.798Z,25.40
2018-07-09T17:39:26.856Z,25.40
2018-07-09T17:41:53.780Z,25.40
2018-07-09T17:44:20.720Z,25.40
2018-07-09T17:46:47.632Z,25.40
2018-07-09T17:49:14.711Z,25.40
2018-07-09T17:51:41.656Z,25.30
2018-07-09T17:54:08.938Z,25.30
2018-07-09T17:56:35.895Z,25.40
2018-07-09T17:59:02.922Z,25.40
2018-07-09T18:01:29.836Z,25.40
2018-07-09T18:03:56.743Z,25.40
2018-07-09T18:06:23.656Z,25.50
2018-07-09T18:08:51.695Z,25.50
2018-07-09T18:11:19.135Z,25.50
2018-07-09T18:16:13.880Z,25.60
2018-07-09T18:18:41.953Z,25.60
2018-07-09T18:21:09.106Z,25.60
2018-07-09T18:23:37.212Z,25.60
2018-07-09T18:26:04.108Z,25.60
2018-07-09T18:28:31.178Z,25.60
2018-07-09T18:30:58.935Z,25.70
2018-07-09T18:33:27.359Z,25.70
2018-07-09T18:35:54.628Z,25.70
2018-07-09T18:38:21.565Z,25.70
2018-07-09T18:40:48.483Z,25.70
2018-07-09T18:43:15.990Z,25.70
2018-07-09T18:45:42.931Z,25.70
2018-07-09T18:48:09.860Z,25.80
2018-07-09T18:50:37.072Z,25.80
2018-07-09T18:53:04.024Z,25.80
2018-07-09T18:55:30.967Z,25.80
2018-07-09T18:57:58.462Z,25.70
2018-07-09T19:00:26.808Z,25.70
2018-07-09T19:02:53.704Z,25.70
2018-07-09T19:05:26.392Z,25.80
2018-07-09T19:07:53.363Z,25.80
2018-07-09T19:10:20.330Z,25.70
2018-07-09T19:12:47.940Z,25.70
2018-07-09T19:15:15.461Z,25.70
2018-07-09T19:17:48.267Z,25.70
2018-07-09T19:20:20.819Z,25.70
2018-07-09T19:22:47.709Z,25.70
2018-07-09T19:25:14.238Z,25.70
2018-07-09T19:27:40.627Z,25.70
2018-07-09T19:30:07.927Z,25.80
2018-07-09T19:32:34.356Z,25.70
2018-07-09T19:35:00.787Z,25.70
2018-07-09T19:37:27.948Z,25.70
2018-07-09T19:39:54.100Z,25.70
2018-07-09T19:42:20.489Z,25.70
2018-07-09T19:44:46.859Z,25.70
2018-07-09T19:47:13.253Z,25.70
2018-07-09T19:49:41.064Z,25.70
2018-07-09T19:52:07.503Z,25.70
2018-07-09T19:54:33.927Z,25.70
2018-07-09T19:57:00.310Z,25.70
2018-07-09T19:59:26.681Z,25.80
2018-07-09T20:01:53.109Z,25.80
2018-07-09T20:09:18.954Z,25.80
2018-07-09T20:11:50.538Z,25.90
2018-07-09T20:14:22.655Z,25.90
2018-07-09T20:16:54.740Z,25.90
2018-07-09T20:19:21.112Z,25.90
2018-07-09T20:21:47.505Z,25.90
2018-07-09T20:26:40.744Z,25.90
2018-07-09T20:29:07.184Z,25.80
2018-07-09T20:31:33.594Z,25.80
2018-07-09T20:33:59.981Z,25.80
2018-07-09T20:36:26.375Z,25.80
2018-07-09T20:38:52.777Z,25.80
2018-07-09T20:41:19.429Z,25.80
2018-07-09T20:43:45.801Z,25.70
2018-07-09T20:46:12.192Z,25.70
2018-07-09T20:48:38.567Z,25.70
2018-07-09T20:51:04.995Z,25.70
2018-07-09T20:53:31.390Z,25.70
2018-07-09T20:55:58.117Z,25.70
2018-07-09T20:58:24.578Z,25.70
2018-07-09T21:00:50.966Z,25.60
2018-07-09T21:03:17.367Z,25.60
2018-07-09T21:05:43.753Z,25.60
2018-07-09T21:08:10.145Z,25.60
2018-07-09T21:10:36.519Z,25.60
2018-07-09T21:13:02.916Z,25.60
2018-07-09T21:15:29.416Z,25.60
2018-07-09T21:17:55.740Z,25.60
2018-07-09T21:20:22.121Z,25.50
2018-07-09T21:22:48.955Z,25.60
2018-07-09T21:25:16.184Z,25.50
2018-07-09T21:32:36.416Z,25.50
2018-07-09T21:35:02.804Z,25.50
2018-07-09T21:37:29.325Z,25.50
2018-07-09T21:39:55.752Z,25.50
2018-07-09T21:42:22.134Z,25.50
2018-07-09T21:44:48.536Z,25.50
2018-07-09T21:47:14.907Z,25.50
2018-07-09T21:49:41.287Z,25.50
2018-07-09T21:52:08.393Z,25.50
2018-07-09T21:54:35.263Z,25.40
2018-07-09T21:57:01.680Z,25.50
2018-07-09T21:59:28.144Z,25.40
2018-07-09T22:01:54.516Z,25.40
2018-07-09T22:09:14.694Z,25.40
2018-07-09T22:11:41.089Z,25.40
2018-07-09T22:14:07.478Z,25.40
2018-07-09T22:16:33.880Z,25.40
2018-07-09T22:19:00.275Z,25.30
2018-07-09T22:23:53.622Z,25.30
2018-07-09T22:26:19.998Z,25.30
2018-07-09T22:28:46.396Z,25.30
2018-07-09T22:31:13.311Z,25.30
2018-07-09T22:33:40.199Z,25.30
2018-07-09T22:36:07.176Z,25.30
2018-07-09T22:38:34.098Z,25.30
2018-07-09T22:41:01.032Z,25.30
2018-07-09T22:43:33.560Z,25.30
2018-07-09T22:46:00.476Z,25.30
2018-07-09T22:48:27.383Z,25.30
2018-07-09T22:50:54.414Z,25.30
2018-07-09T22:53:21.280Z,25.30
2018-07-09T22:55:53.859Z,25.30
2018-07-09T22:58:20.779Z,25.20
2018-07-09T23:00:47.696Z,25.20
2018-07-09T23:03:15.612Z,25.20
2018-07-09T23:05:42.867Z,25.20
2018-07-09T23:08:09.827Z,25.20
2018-07-09T23:12:43.945Z,25.20
2018-07-09T23:15:41.602Z,25.20
2018-07-09T23:22:44.644Z,25.20
2018-07-09T23:25:11.044Z,25.10
2018-07-09T23:27:37.427Z,25.10
2018-07-09T23:30:03.795Z,25.10
2018-07-09T23:32:30.195Z,25.10
2018-07-09T23:34:56.572Z,25.10
2018-07-09T23:37:23.050Z,25.10
2018-07-09T23:39:49.420Z,25.10
2018-07-09T23:42:16.011Z,25.10
2018-07-09T23:44:42.331Z,25.10
2018-07-09T23:47:08.716Z,25.10
2018-07-09T23:49:35.089Z,25.10
2018-07-09T23:52:01.479Z,25.10
2018-07-09T23:54:27.875Z,25.10
2018-07-09T23:56:56.704Z,25.10
2018-07-09T23:59:29.262Z,25.10
